Have a Safe July 4th! 

Flight Track Log - Related Links

Times and Time Zones

All times are in EDT time to prevent confusion due to time zone crossing. See the SKW6492 flight status page for this flight to view local times or setup timezone preferences in your user account.

Time Position Orientation Groundspeed Altitude Reporting Facility
EDT Latitude Longitude Course Direction KTS MPH feet Rate Location/Type
Sat 09:47:10 PM 39.8833 -104.5667 346° North 205 236 7,300  Level Denver TRACON
Sat 09:48:22 PM 39.9000 -104.4500 79° East 289 333 8,900 1,667 Climbing Denver TRACON
Sat 09:49:00 PM 40.1650 -104.7711 347° North  Level FlightAware Approximate
Sat 09:49:16 PM 39.9667 -104.3833 37° Northeast 311 358 10,800  Level Denver TRACON
Sat 09:50:00 PM 40.2708 -104.8029 347° North  Level FlightAware Approximate
Sat 09:50:16 PM 40.0500 -104.3833 360° North 321 369 12,500  Level Denver TRACON
Sat 09:51:00 PM 40.3763 -104.8365 346° North  Level FlightAware Approximate
Sat 09:52:00 PM 40.4722 -104.8685 346° North  Level FlightAware Approximate
Sat 09:52:12 PM 40.2097 -104.4956 332° Northwest 338 389 15,500  Level Denver Center
Sat 09:53:14 PM 40.3078 -104.5547 335° Northwest 361 415 16,700 1,171 Climbing Denver Center
Sat 09:54:15 PM 40.3975 -104.6111 334° Northwest 360 414 17,900 1,131 Climbing Denver Center
Sat 09:55:16 PM 40.4925 -104.6681 335° Northwest 378 435 19,000 1,073 Climbing Denver Center
Sat 09:56:18 PM 40.5792 -104.7392 328° Northwest 368 423 20,100 1,073 Climbing Denver Center
Sat 09:57:19 PM 40.6717 -104.8272 324° Northwest 381 438 21,200 787 Climbing Denver Center
Sat 09:58:20 PM 40.7606 -104.9133 324° Northwest 379 436 21,700 537 Climbing Denver Center
Sat 09:59:22 PM 40.8486 -104.9961 325° Northwest 385 443 22,300 829 Climbing Denver Center
Sat 10:00:23 PM 40.9389 -105.0853 323° Northwest 402 463 23,400 829 Climbing Denver Center
Sat 10:01:25 PM 41.0231 -105.1681 323° Northwest 400 460 24,000 634 Climbing Denver Center
Sat 10:02:26 PM 41.1250 -105.2664 324° Northwest 404 465 24,700 639 Climbing Denver Center
Sat 10:03:27 PM 41.2133 -105.3556 323° Northwest 413 475 25,300 585 Climbing Denver Center
Sat 10:04:29 PM 41.3028 -105.4428 324° Northwest 416 479 25,900 341 Climbing Denver Center
Sat 10:05:30 PM 41.4089 -105.5489 323° Northwest 423 487 26,000 49 Climbing Denver Center
Sat 10:06:31 PM 41.4869 -105.6283 323° Northwest 433 498 26,000  Level Denver Center
Sat 10:07:32 PM 41.6164 -105.7553 324° Northwest 453 521 26,000  Level Denver Center
Sat 10:08:34 PM 41.7119 -105.8508 323° Northwest 450 518 26,000  Level Denver Center
Sat 10:09:35 PM 41.8094 -105.9494 323° Northwest 456 525 26,000  Level Denver Center
Sat 10:10:36 PM 41.9222 -106.0628 323° Northwest 452 520 26,000  Level Denver Center
Sat 10:11:37 PM 42.0189 -106.1614 323° Northwest 453 521 26,000  Level Denver Center
Sat 10:12:38 PM 42.1136 -106.2592 323° Northwest 451 519 26,000  Level Denver Center
Sat 10:13:52 PM 42.2250 -106.3753 322° Northwest 452 520 26,000  Level Denver Center
Sat 10:15:05 PM 42.3392 -106.4914 323° Northwest 457 526 26,000  Level Denver Center
Sat 10:16:06 PM 42.4683 -106.6250 323° Northwest 458 527 26,000  Level Denver Center
Sat 10:17:08 PM 42.5656 -106.7244 323° Northwest 459 528 26,000  Level Denver Center
Sat 10:18:09 PM 42.6772 -106.8425 322° Northwest 458 527 26,000  Level Denver Center
Sat 10:19:10 PM 42.7733 -106.9436 322° Northwest 455 524 26,000  Level Denver Center
Sat 10:20:11 PM 42.8875 -107.0628 323° Northwest 460 529 26,000  Level Denver Center
Sat 10:20:42 PM 42.9317 -107.1111 321° Northwest 459 528 26,000  Level Salt Lake Center
Sat 10:21:44 PM 43.0314 -107.2206 321° Northwest 459 528 26,000  Level Salt Lake Center
Sat 10:22:45 PM 43.1317 -107.3292 322° Northwest 461 531 26,000  Level Salt Lake Center
Sat 10:23:46 PM 43.2333 -107.4369 322° Northwest 462 532 26,000  Level Salt Lake Center
Sat 10:24:48 PM 43.3358 -107.5389 324° Northwest 457 526 26,000  Level Salt Lake Center
Sat 10:25:50 PM 43.4383 -107.6489 322° Northwest 464 534 26,000 -390 Level Salt Lake Center
Sat 10:26:51 PM 43.5597 -107.7822 321° Northwest 465 535 25,200 -885 Descending Salt Lake Center
Sat 10:27:52 PM 43.6608 -107.8967 321° Northwest 466 536 24,200 -878 Descending Salt Lake Center
Sat 10:28:54 PM 43.7622 -108.0056 322° Northwest 461 531 23,400 -1,024 Descending Salt Lake Center
Sat 10:29:55 PM 43.8603 -108.1142 321° Northwest 452 520 22,100 -1,672 Descending Salt Lake Center
Sat 10:30:56 PM 43.9544 -108.2194 321° Northwest 438 504 20,000 -2,000 Descending Salt Lake Center
Sat 10:31:58 PM 44.0458 -108.3217 321° Northwest 428 493 18,000 -1,854 Descending Salt Lake Center
Sat 10:32:59 PM 44.1361 -108.4206 322° Northwest 421 484 16,200 -1,525 Descending Salt Lake Center
Sat 10:34:00 PM 44.2261 -108.5222 321° Northwest 418 481 14,900 -1,122 Descending Salt Lake Center
Sat 10:35:02 PM 44.3136 -108.6192 322° Northwest 412 474 13,900 -1,415 Descending Salt Lake Center
Sat 10:36:03 PM 44.3928 -108.7069 322° Northwest 393 452 12,000 -1,561 Descending Salt Lake Center
Sat 10:37:05 PM 44.4700 -108.7942 321° Northwest 338 389 10,700 -1,171 Descending Salt Lake Center
Sat 10:38:06 PM 44.5389 -108.8244 343° North 288 331 9,600 -1,463 Descending Salt Lake Center
Sat 10:39:08 PM 44.5817 -108.8789 318° Northwest 244 281 7,700 -1,707 Descending Salt Lake Center
Sat 10:40:09 PM 44.5656 -108.9514 253° West 213 245 6,100 -934 Descending Salt Lake Center
Sat 10:41:10 PM 44.5397 -109.0006 234° Southwest 201 231 5,800 -295 Descending Salt Lake Center

Login

Don't have an account? Register now (free) for customized features, flight alerts, and more!